createdAt,value
2023-03-31T00:02:13.902Z,9.76
2023-03-31T00:04:55.283Z,9.73
2023-03-31T00:07:27.254Z,9.70
2023-03-31T00:10:16.765Z,9.70
2023-03-31T00:12:49.817Z,9.68
2023-03-31T00:15:21.599Z,9.67
2023-03-31T00:17:53.671Z,9.66
2023-03-31T00:20:25.402Z,9.66
2023-03-31T00:22:59.003Z,9.65
2023-03-31T00:25:30.889Z,9.65
2023-03-31T00:28:02.592Z,9.62
2023-03-31T00:30:34.699Z,9.61
2023-03-31T00:33:07.082Z,9.60
2023-03-31T00:35:39.255Z,9.58
2023-03-31T00:38:14.021Z,9.59
2023-03-31T00:40:48.640Z,9.57
2023-03-31T00:43:36.935Z,9.56
2023-03-31T00:46:15.714Z,9.57
2023-03-31T00:48:52.132Z,9.51
2023-03-31T00:51:28.287Z,9.52
2023-03-31T00:54:06.446Z,9.50
2023-03-31T00:56:41.811Z,9.49
2023-03-31T00:59:15.616Z,9.47
2023-03-31T01:01:50.648Z,9.44
2023-03-31T01:04:22.890Z,9.43
2023-03-31T01:07:03.394Z,9.42
2023-03-31T01:09:35.744Z,9.34
2023-03-31T01:12:09.662Z,9.29
2023-03-31T01:14:48.863Z,9.22
2023-03-31T01:17:28.823Z,9.21
2023-03-31T01:20:12.630Z,9.21
2023-03-31T01:22:50.017Z,9.25
2023-03-31T01:26:09.386Z,9.26
2023-03-31T01:29:08.876Z,9.27
2023-03-31T01:32:13.925Z,9.26
2023-03-31T01:34:51.904Z,9.23
2023-03-31T01:38:00.939Z,9.26
2023-03-31T01:40:46.597Z,9.30
2023-03-31T01:43:33.627Z,9.35
2023-03-31T01:46:21.205Z,9.38
2023-03-31T01:49:22.975Z,9.39
2023-03-31T01:52:11.593Z,9.45
2023-03-31T01:55:10.423Z,9.44
2023-03-31T01:58:07.883Z,9.43
2023-03-31T02:00:45.292Z,9.47
2023-03-31T02:03:29.456Z,9.46
2023-03-31T02:06:10.590Z,9.45
2023-03-31T02:08:52.556Z,9.45
2023-03-31T02:11:25.711Z,9.44
2023-03-31T02:14:01.999Z,9.42
2023-03-31T02:16:41.792Z,9.38
2023-03-31T02:19:19.709Z,9.38
2023-03-31T02:21:51.947Z,9.40
2023-03-31T02:24:26.560Z,9.40
2023-03-31T02:27:08.608Z,9.34
2023-03-31T02:29:42.357Z,9.33
2023-03-31T02:32:32.456Z,9.33
2023-03-31T02:35:07.049Z,9.27
2023-03-31T02:37:40.533Z,9.24
2023-03-31T02:40:22.630Z,9.21
2023-03-31T02:42:54.549Z,9.25
2023-03-31T02:45:41.361Z,9.24
2023-03-31T02:48:19.418Z,9.20
2023-03-31T02:51:03.583Z,9.25
2023-03-31T02:53:48.752Z,9.18
2023-03-31T02:56:39.799Z,9.12
2023-03-31T02:59:11.499Z,9.08
2023-03-31T03:01:46.540Z,9.10
2023-03-31T03:04:53.887Z,9.15
2023-03-31T03:08:19.599Z,9.20
2023-03-31T03:10:57.344Z,9.21
2023-03-31T03:13:53.567Z,9.18
2023-03-31T03:16:41.482Z,9.20
2023-03-31T03:19:23.519Z,9.26
2023-03-31T03:21:55.889Z,9.31
2023-03-31T03:24:29.878Z,9.35
2023-03-31T03:27:01.981Z,9.33
2023-03-31T03:29:33.793Z,9.35
2023-03-31T03:32:06.920Z,9.38
2023-03-31T03:34:38.705Z,9.38
2023-03-31T03:37:10.445Z,9.38
2023-03-31T03:39:42.249Z,9.43
2023-03-31T03:42:17.000Z,9.47
2023-03-31T03:44:48.691Z,9.43
2023-03-31T03:47:20.501Z,9.43
2023-03-31T03:49:52.428Z,9.44
2023-03-31T03:52:24.208Z,9.42
2023-03-31T03:54:55.953Z,9.42
2023-03-31T03:57:28.258Z,9.41
2023-03-31T04:00:00.060Z,9.42
2023-03-31T04:02:31.914Z,9.43
2023-03-31T04:05:04.169Z,9.46
2023-03-31T04:07:35.910Z,9.48
2023-03-31T04:10:08.375Z,9.48
2023-03-31T04:12:40.408Z,9.45
2023-03-31T04:15:12.158Z,9.47
2023-03-31T04:17:51.184Z,9.47
2023-03-31T04:20:27.826Z,9.50
2023-03-31T04:23:00.025Z,9.50
2023-03-31T04:25:32.099Z,9.51
2023-03-31T04:28:07.017Z,9.53
2023-03-31T04:30:39.842Z,9.54
2023-03-31T04:33:15.461Z,9.51
2023-03-31T04:35:52.742Z,9.56
2023-03-31T04:38:27.165Z,9.58
2023-03-31T04:40:58.908Z,9.59
2023-03-31T04:43:30.888Z,9.61
2023-03-31T04:46:02.782Z,9.61
2023-03-31T04:48:34.939Z,9.61
2023-03-31T04:51:07.361Z,9.61
2023-03-31T04:53:39.057Z,9.56
2023-03-31T04:56:11.262Z,9.58
2023-03-31T04:58:46.236Z,9.52
2023-03-31T05:01:21.737Z,9.54
2023-03-31T05:03:53.482Z,9.57
2023-03-31T05:06:26.104Z,9.60
2023-03-31T05:09:00.045Z,9.66
2023-03-31T05:11:31.851Z,9.71
2023-03-31T05:14:04.051Z,9.68
2023-03-31T05:16:36.122Z,9.74
2023-03-31T05:19:08.316Z,9.78
2023-03-31T05:21:40.036Z,9.87
2023-03-31T05:24:11.838Z,9.96
2023-03-31T05:26:48.474Z,10.40
2023-03-31T05:29:20.702Z,10.88
2023-03-31T05:31:53.993Z,11.16
2023-03-31T05:34:25.917Z,11.07
2023-03-31T05:36:57.795Z,11.00
2023-03-31T05:39:33.090Z,11.00
2023-03-31T05:42:05.976Z,10.99
2023-03-31T05:44:37.818Z,10.95
2023-03-31T05:47:09.619Z,10.90
2023-03-31T05:49:41.475Z,10.85
2023-03-31T05:52:13.205Z,10.82
2023-03-31T05:54:45.295Z,10.77
2023-03-31T05:57:17.252Z,10.81
2023-03-31T05:59:50.991Z,10.91
2023-03-31T06:02:22.812Z,11.05
2023-03-31T06:04:54.606Z,11.43
2023-03-31T06:07:26.326Z,11.93
2023-03-31T06:09:58.072Z,12.36
2023-03-31T06:12:29.803Z,12.68
2023-03-31T06:15:01.683Z,13.16
2023-03-31T06:17:33.460Z,13.64
2023-03-31T06:20:16.303Z,14.16
2023-03-31T06:22:56.206Z,14.53
2023-03-31T06:25:32.388Z,14.69
2023-03-31T06:28:09.665Z,14.95
2023-03-31T06:30:41.650Z,15.46
2023-03-31T06:33:13.951Z,15.81
2023-03-31T06:35:45.771Z,16.09
2023-03-31T06:38:17.460Z,15.80
2023-03-31T06:40:49.194Z,15.49
2023-03-31T06:43:21.058Z,14.93
2023-03-31T06:45:54.288Z,14.45
2023-03-31T06:48:26.924Z,14.14
2023-03-31T06:51:07.308Z,13.81
2023-03-31T06:53:39.228Z,13.60
2023-03-31T06:56:11.205Z,13.46
2023-03-31T06:58:42.977Z,12.95
2023-03-31T07:01:14.793Z,12.82
2023-03-31T07:03:46.598Z,12.70
2023-03-31T07:06:18.382Z,12.58
2023-03-31T07:08:52.952Z,12.50
2023-03-31T07:11:24.940Z,12.42
2023-03-31T07:13:56.709Z,12.31
2023-03-31T07:16:28.522Z,12.27
2023-03-31T07:19:04.297Z,12.19
2023-03-31T07:21:37.068Z,12.22
2023-03-31T07:24:08.814Z,12.27
2023-03-31T07:26:40.898Z,12.34
2023-03-31T07:29:12.685Z,12.36
2023-03-31T07:31:47.671Z,12.28
2023-03-31T07:34:19.623Z,12.26
2023-03-31T07:36:51.655Z,12.34
2023-03-31T07:39:23.551Z,12.45
2023-03-31T07:41:55.580Z,12.87
2023-03-31T07:44:27.345Z,13.60
2023-03-31T07:47:01.390Z,13.99
2023-03-31T07:49:35.459Z,14.17
2023-03-31T07:52:07.331Z,14.23
2023-03-31T07:54:39.243Z,14.20
2023-03-31T07:57:11.064Z,14.18
2023-03-31T07:59:44.375Z,14.17
2023-03-31T08:02:17.593Z,14.09
2023-03-31T08:04:49.413Z,13.85
2023-03-31T08:07:21.150Z,13.72
2023-03-31T08:09:52.946Z,13.59
2023-03-31T08:12:25.011Z,13.59
2023-03-31T08:14:56.706Z,13.43
2023-03-31T08:17:28.524Z,13.43
2023-03-31T08:20:05.136Z,13.37
2023-03-31T08:22:39.946Z,13.22
2023-03-31T08:25:11.754Z,13.16
2023-03-31T08:27:43.449Z,13.04
2023-03-31T08:30:19.866Z,13.01
2023-03-31T08:32:51.785Z,12.99
2023-03-31T08:35:23.593Z,12.91
2023-03-31T08:37:55.835Z,12.81
2023-03-31T08:40:29.555Z,12.73
2023-03-31T08:43:31.364Z,12.66
2023-03-31T08:46:07.739Z,12.59
2023-03-31T08:48:48.978Z,12.51
2023-03-31T08:51:40.380Z,12.53
2023-03-31T08:54:38.689Z,12.52
2023-03-31T08:57:25.385Z,12.46
2023-03-31T09:00:07.098Z,12.43
2023-03-31T09:03:07.126Z,12.34
2023-03-31T09:05:59.614Z,12.25
2023-03-31T09:08:33.709Z,12.20
2023-03-31T09:11:24.712Z,12.23
2023-03-31T09:14:13.339Z,12.07
2023-03-31T09:17:14.005Z,12.07
2023-03-31T09:19:57.739Z,12.01
2023-03-31T09:22:38.322Z,12.01
2023-03-31T09:25:18.744Z,11.94
2023-03-31T09:27:54.625Z,11.92
2023-03-31T09:30:35.830Z,11.92
2023-03-31T09:33:33.882Z,11.91
2023-03-31T09:36:15.959Z,11.89
2023-03-31T09:38:48.329Z,11.85
2023-03-31T09:41:20.625Z,11.89
2023-03-31T09:43:53.697Z,11.93
2023-03-31T09:46:36.748Z,11.96
2023-03-31T09:49:14.034Z,11.94
2023-03-31T09:51:49.079Z,12.00
2023-03-31T09:54:49.843Z,12.06
2023-03-31T09:57:31.219Z,12.00
2023-03-31T10:00:14.153Z,11.97
2023-03-31T10:02:50.050Z,12.02
2023-03-31T10:05:32.516Z,12.02
2023-03-31T10:08:29.040Z,12.07
2023-03-31T10:11:04.041Z,12.03
2023-03-31T10:14:02.336Z,12.06
2023-03-31T10:16:44.562Z,12.00
2023-03-31T10:19:22.143Z,11.94
2023-03-31T10:22:06.533Z,11.94
2023-03-31T10:24:47.319Z,11.95
2023-03-31T10:27:32.445Z,12.02
2023-03-31T10:30:09.407Z,12.11
2023-03-31T10:32:50.317Z,12.09
2023-03-31T10:35:35.437Z,12.12
2023-03-31T10:38:12.291Z,12.06
2023-03-31T10:40:56.445Z,12.07
2023-03-31T10:43:36.418Z,12.10
2023-03-31T10:46:09.216Z,12.09
2023-03-31T10:48:42.497Z,12.14
2023-03-31T10:51:25.962Z,12.08
2023-03-31T10:54:03.468Z,12.09
2023-03-31T10:56:58.325Z,12.09
2023-03-31T10:59:46.842Z,12.07
2023-03-31T11:02:27.655Z,12.17
2023-03-31T11:05:25.474Z,12.14
2023-03-31T11:08:07.761Z,12.04
2023-03-31T11:11:15.995Z,12.09
2023-03-31T11:14:01.268Z,12.08
2023-03-31T11:16:51.922Z,11.99
2023-03-31T11:19:48.293Z,11.94
2023-03-31T11:22:52.601Z,11.93
2023-03-31T11:25:43.625Z,11.93
2023-03-31T11:28:36.794Z,11.94
2023-03-31T11:31:08.682Z,11.81
2023-03-31T11:33:56.821Z,11.67
2023-03-31T11:36:36.808Z,11.63
2023-03-31T11:39:28.779Z,11.57
2023-03-31T11:42:13.557Z,11.43
2023-03-31T11:44:53.124Z,11.50
2023-03-31T11:47:32.731Z,11.49
2023-03-31T11:50:11.596Z,11.47
2023-03-31T11:53:00.779Z,11.50
2023-03-31T11:55:34.969Z,11.71
2023-03-31T11:58:20.778Z,11.98
2023-03-31T12:01:00.177Z,12.25
2023-03-31T12:03:39.299Z,12.37
2023-03-31T12:06:19.893Z,12.53
2023-03-31T12:09:13.370Z,12.62
2023-03-31T12:12:06.213Z,12.62
2023-03-31T12:14:55.638Z,12.70
2023-03-31T12:17:27.888Z,12.69
2023-03-31T12:20:07.345Z,12.72
2023-03-31T12:22:44.911Z,12.72
2023-03-31T12:25:26.171Z,12.67
2023-03-31T12:27:59.936Z,12.68
2023-03-31T12:30:46.237Z,12.68
2023-03-31T12:33:43.047Z,12.88
2023-03-31T12:36:30.016Z,13.36
2023-03-31T12:39:33.691Z,13.89
2023-03-31T12:42:08.108Z,14.11
2023-03-31T12:45:02.693Z,14.29
2023-03-31T12:48:13.234Z,14.61
2023-03-31T12:51:20.684Z,14.78
2023-03-31T12:54:01.536Z,14.77
2023-03-31T12:57:01.705Z,14.70
2023-03-31T12:59:41.090Z,14.72
2023-03-31T13:02:16.254Z,14.77
2023-03-31T13:04:49.696Z,14.84
2023-03-31T13:07:29.161Z,15.10
2023-03-31T13:10:19.884Z,14.92
2023-03-31T13:13:14.794Z,14.73
2023-03-31T13:16:01.240Z,14.80
2023-03-31T13:18:35.585Z,14.78
2023-03-31T13:21:08.397Z,14.51
2023-03-31T13:23:46.708Z,14.11
2023-03-31T13:26:33.664Z,13.94
2023-03-31T13:29:14.850Z,13.97
2023-03-31T13:32:04.837Z,14.12
2023-03-31T13:35:04.103Z,14.43
2023-03-31T13:38:14.398Z,14.75
2023-03-31T13:41:03.935Z,14.86
2023-03-31T13:43:59.618Z,15.05
2023-03-31T13:46:52.159Z,15.06
2023-03-31T13:49:55.904Z,14.92
2023-03-31T13:52:53.867Z,14.85
2023-03-31T13:55:53.384Z,14.82
2023-03-31T13:58:35.071Z,14.73
2023-03-31T14:01:37.323Z,14.63
2023-03-31T14:04:50.462Z,14.49
2023-03-31T14:07:42.611Z,13.72
2023-03-31T14:10:45.200Z,13.32
2023-03-31T14:13:20.031Z,12.94
2023-03-31T14:15:58.678Z,12.65
2023-03-31T14:18:35.787Z,12.46
2023-03-31T14:21:34.946Z,12.35
2023-03-31T14:24:24.530Z,12.22
2023-03-31T14:27:18.762Z,12.26
2023-03-31T14:30:13.105Z,12.17
2023-03-31T14:33:15.799Z,12.02
2023-03-31T14:36:16.029Z,11.85
2023-03-31T14:38:47.957Z,11.80
2023-03-31T14:41:21.594Z,11.78
2023-03-31T14:43:53.335Z,11.71
2023-03-31T14:46:25.063Z,11.61
2023-03-31T14:48:57.712Z,11.59
2023-03-31T14:51:31.045Z,11.54
2023-03-31T14:54:02.963Z,11.56
2023-03-31T14:56:40.556Z,11.54
2023-03-31T14:59:22.089Z,11.43
2023-03-31T15:01:56.400Z,11.48
2023-03-31T15:04:42.472Z,11.53
2023-03-31T15:07:16.422Z,11.44
2023-03-31T15:09:51.528Z,11.25
2023-03-31T15:12:28.873Z,11.22
2023-03-31T15:15:06.544Z,11.07
2023-03-31T15:17:41.676Z,11.01
2023-03-31T15:20:27.972Z,11.07
2023-03-31T15:23:00.033Z,11.09
2023-03-31T15:25:39.564Z,11.05
2023-03-31T15:28:16.786Z,11.01
2023-03-31T15:31:03.479Z,11.07
2023-03-31T15:33:42.158Z,11.09
2023-03-31T15:36:17.242Z,11.14
2023-03-31T15:38:57.275Z,11.11
2023-03-31T15:41:31.809Z,11.13
2023-03-31T15:44:36.565Z,11.19
2023-03-31T15:47:24.495Z,11.28
2023-03-31T15:50:17.007Z,11.35
2023-03-31T15:52:55.735Z,11.38
2023-03-31T15:55:31.998Z,11.25
2023-03-31T15:58:04.103Z,11.25
2023-03-31T16:00:47.271Z,11.18
2023-03-31T16:03:38.756Z,11.16
2023-03-31T16:06:16.431Z,11.11
2023-03-31T16:09:15.138Z,11.11
2023-03-31T16:12:10.693Z,11.09
2023-03-31T16:14:53.834Z,11.06
2023-03-31T16:17:34.960Z,11.05
2023-03-31T16:20:11.322Z,11.13
2023-03-31T16:22:47.776Z,11.13
2023-03-31T16:25:23.082Z,11.15
2023-03-31T16:27:57.711Z,11.20
2023-03-31T16:30:38.541Z,11.20
2023-03-31T16:33:12.305Z,11.12
2023-03-31T16:35:50.416Z,11.15
2023-03-31T16:38:24.618Z,11.17
2023-03-31T16:40:58.781Z,11.15
2023-03-31T16:43:31.562Z,11.16
2023-03-31T16:46:04.491Z,11.15
2023-03-31T16:48:36.278Z,11.18
2023-03-31T16:51:07.968Z,11.20
2023-03-31T16:53:40.410Z,11.16
2023-03-31T16:56:15.004Z,11.19
2023-03-31T16:58:46.921Z,11.22
2023-03-31T17:01:18.829Z,11.24
2023-03-31T17:03:52.345Z,11.22
2023-03-31T17:06:24.333Z,11.18
2023-03-31T17:08:56.292Z,11.19
2023-03-31T17:11:28.532Z,11.18
2023-03-31T17:14:00.413Z,11.09
2023-03-31T17:16:45.012Z,11.08
2023-03-31T17:19:22.692Z,11.11
2023-03-31T17:21:55.186Z,11.08
2023-03-31T17:24:27.467Z,11.07
2023-03-31T17:26:59.347Z,11.01
2023-03-31T17:29:32.097Z,11.01
2023-03-31T17:32:04.320Z,10.95
2023-03-31T17:34:36.255Z,10.98
2023-03-31T17:37:08.275Z,10.96
2023-03-31T17:39:40.081Z,10.93
2023-03-31T17:42:13.380Z,10.89
2023-03-31T17:44:46.451Z,10.90
2023-03-31T17:47:19.191Z,10.92
2023-03-31T17:49:52.404Z,10.89
2023-03-31T17:52:25.045Z,10.89
2023-03-31T17:54:57.787Z,10.90
2023-03-31T17:57:31.140Z,10.84
2023-03-31T18:00:05.959Z,10.83
2023-03-31T18:02:42.224Z,10.86
2023-03-31T18:05:15.856Z,10.86
2023-03-31T18:07:49.652Z,10.80
2023-03-31T18:10:22.747Z,10.78
2023-03-31T18:12:55.096Z,10.74
2023-03-31T18:15:26.851Z,10.69
2023-03-31T18:17:58.631Z,10.70
2023-03-31T18:20:30.681Z,10.66
2023-03-31T18:23:02.469Z,10.68
2023-03-31T18:25:34.545Z,10.65
2023-03-31T18:28:06.756Z,10.67
2023-03-31T18:30:38.987Z,10.56
2023-03-31T18:33:11.736Z,10.54
2023-03-31T18:35:45.566Z,10.53
2023-03-31T18:38:18.524Z,10.50
2023-03-31T18:40:52.531Z,10.53
2023-03-31T18:43:24.872Z,10.50
2023-03-31T18:45:58.601Z,10.51
2023-03-31T18:48:30.654Z,10.50
2023-03-31T18:51:02.864Z,10.45
2023-03-31T18:53:34.556Z,10.43
2023-03-31T18:56:06.449Z,10.41
2023-03-31T18:58:39.629Z,10.36
2023-03-31T19:01:11.489Z,10.36
2023-03-31T19:03:44.858Z,10.34
2023-03-31T19:06:17.791Z,10.37
2023-03-31T19:08:49.682Z,10.33
2023-03-31T19:11:23.783Z,10.37
2023-03-31T19:13:56.526Z,10.34
2023-03-31T19:16:28.256Z,10.36
2023-03-31T19:19:00.007Z,10.36
2023-03-31T19:21:33.276Z,10.36
2023-03-31T19:24:05.990Z,10.34
2023-03-31T19:26:37.742Z,10.31
2023-03-31T19:29:09.692Z,10.31
2023-03-31T19:31:41.553Z,10.26
2023-03-31T19:34:14.097Z,10.27
2023-03-31T19:36:45.841Z,10.26
2023-03-31T19:39:18.138Z,10.23
2023-03-31T19:41:49.879Z,10.16
2023-03-31T19:44:21.759Z,10.09
2023-03-31T19:46:53.562Z,10.08
2023-03-31T19:49:25.495Z,10.07
2023-03-31T19:51:57.200Z,10.08
2023-03-31T19:54:28.909Z,10.09
2023-03-31T19:57:00.995Z,10.12
2023-03-31T19:59:32.814Z,10.12
2023-03-31T20:02:06.875Z,10.15
2023-03-31T20:04:39.056Z,10.17
2023-03-31T20:07:13.866Z,10.20
2023-03-31T20:09:46.096Z,10.21
2023-03-31T20:12:18.121Z,10.21
2023-03-31T20:14:49.921Z,10.20
2023-03-31T20:17:21.670Z,10.22
2023-03-31T20:19:53.422Z,10.22
2023-03-31T20:22:26.407Z,10.22
2023-03-31T20:24:58.287Z,10.20
2023-03-31T20:27:30.060Z,10.20
2023-03-31T20:30:02.186Z,10.25
2023-03-31T20:32:33.952Z,10.27
2023-03-31T20:35:07.137Z,10.29
2023-03-31T20:37:38.944Z,10.31
2023-03-31T20:40:12.098Z,10.35
2023-03-31T20:42:43.822Z,10.36
2023-03-31T20:45:15.627Z,10.38
2023-03-31T20:47:47.396Z,10.40
2023-03-31T20:50:22.959Z,10.41
2023-03-31T20:52:58.651Z,10.45
2023-03-31T20:55:30.559Z,10.47
2023-03-31T20:58:03.638Z,10.47
2023-03-31T21:00:35.868Z,10.48
2023-03-31T21:03:07.750Z,10.49
2023-03-31T21:05:47.905Z,10.46
2023-03-31T21:08:19.684Z,10.46
2023-03-31T21:10:51.668Z,10.44
2023-03-31T21:13:23.605Z,10.36
2023-03-31T21:15:55.968Z,10.31
2023-03-31T21:18:29.567Z,10.27
2023-03-31T21:21:03.675Z,10.26
2023-03-31T21:23:37.023Z,10.29
2023-03-31T21:26:11.316Z,10.27
2023-03-31T21:28:44.144Z,10.22
2023-03-31T21:31:18.844Z,10.21
2023-03-31T21:33:51.550Z,10.18
2023-03-31T21:36:26.342Z,10.18
2023-03-31T21:38:58.127Z,10.21
2023-03-31T21:41:31.454Z,10.18
2023-03-31T21:44:04.204Z,10.12
2023-03-31T21:46:36.164Z,10.12
2023-03-31T21:49:08.034Z,10.10
2023-03-31T21:51:40.165Z,10.10
2023-03-31T21:54:11.977Z,10.10
2023-03-31T21:56:45.098Z,10.04
2023-03-31T21:59:16.806Z,10.02
2023-03-31T22:01:51.153Z,10.02
2023-03-31T22:04:23.097Z,10.01
2023-03-31T22:06:55.057Z,10.01
2023-03-31T22:09:27.636Z,9.99
2023-03-31T22:11:59.352Z,9.99
2023-03-31T22:14:31.550Z,9.98
2023-03-31T22:17:03.732Z,9.98
2023-03-31T22:19:36.075Z,9.98
2023-03-31T22:22:07.828Z,10.03
2023-03-31T22:24:39.683Z,9.97
2023-03-31T22:27:12.288Z,9.98
2023-03-31T22:29:44.148Z,10.00
2023-03-31T22:32:19.993Z,10.02
2023-03-31T22:34:51.744Z,10.05
2023-03-31T22:37:23.479Z,10.07
2023-03-31T22:39:55.232Z,10.07
2023-03-31T22:42:28.050Z,10.06
2023-03-31T22:45:00.257Z,10.10
2023-03-31T22:47:32.017Z,10.12
2023-03-31T22:50:04.114Z,10.12
2023-03-31T22:52:36.041Z,10.14
2023-03-31T22:55:07.989Z,10.12
2023-03-31T22:57:39.918Z,10.10
2023-03-31T23:00:12.807Z,10.12
2023-03-31T23:02:44.647Z,10.15
2023-03-31T23:05:16.417Z,10.20
2023-03-31T23:07:48.111Z,10.23
2023-03-31T23:10:19.795Z,10.27
2023-03-31T23:12:51.524Z,10.25
2023-03-31T23:15:23.538Z,10.22
2023-03-31T23:17:55.460Z,10.17
2023-03-31T23:20:27.470Z,10.17
2023-03-31T23:22:59.216Z,10.19
2023-03-31T23:25:31.401Z,10.18
2023-03-31T23:28:03.381Z,10.13
2023-03-31T23:30:35.117Z,10.13
2023-03-31T23:33:06.869Z,10.17
2023-03-31T23:35:38.603Z,10.17
2023-03-31T23:38:11.424Z,10.22
2023-03-31T23:40:44.722Z,10.20
2023-03-31T23:43:16.628Z,10.18
2023-03-31T23:45:48.423Z,10.18
2023-03-31T23:48:20.280Z,10.21
2023-03-31T23:50:52.065Z,10.22
2023-03-31T23:53:24.048Z,10.25
2023-03-31T23:55:57.894Z,10.21
2023-03-31T23:58:33.762Z,10.25
